createdAt,value
2022-08-05T00:01:28.135Z,20.84
2022-08-05T00:03:56.972Z,20.99
2022-08-05T00:06:32.425Z,20.97
2022-08-05T00:09:00.687Z,20.94
2022-08-05T00:11:34.428Z,20.96
2022-08-05T00:14:02.164Z,20.74
2022-08-05T00:16:35.557Z,20.65
2022-08-05T00:19:04.849Z,19.20
2022-08-05T00:21:35.857Z,20.24
2022-08-05T00:24:09.896Z,20.26
2022-08-05T00:26:37.397Z,20.76
2022-08-05T00:29:04.004Z,20.59
2022-08-05T00:31:53.884Z,20.22
2022-08-05T00:34:53.308Z,20.71
2022-08-05T00:37:10.483Z,20.53
2022-08-05T00:39:57.418Z,20.76
2022-08-05T00:42:33.346Z,20.79
2022-08-05T00:45:00.906Z,20.37
2022-08-05T00:47:31.624Z,20.04
2022-08-05T00:50:14.846Z,18.74
2022-08-05T00:52:41.786Z,20.64
2022-08-05T00:55:12.303Z,20.34
2022-08-05T00:57:57.868Z,19.72
2022-08-05T01:00:30.241Z,20.48
2022-08-05T01:02:59.742Z,19.59
2022-08-05T01:05:27.381Z,20.36
2022-08-05T01:08:40.002Z,20.37
2022-08-05T01:10:51.595Z,20.29
2022-08-05T01:13:57.835Z,19.89
2022-08-05T01:16:49.070Z,20.33
2022-08-05T01:19:21.692Z,20.27
2022-08-05T01:22:18.787Z,20.26
2022-08-05T01:24:50.847Z,20.23
2022-08-05T01:27:55.905Z,20.20
2022-08-05T01:30:33.754Z,19.81
2022-08-05T01:33:06.099Z,19.83
2022-08-05T01:35:52.214Z,20.03
2022-08-05T01:38:27.482Z,20.24
2022-08-05T01:41:01.392Z,20.02
2022-08-05T01:43:29.492Z,20.18
2022-08-05T01:45:58.748Z,19.28
2022-08-05T01:48:36.695Z,20.18
2022-08-05T01:51:12.405Z,18.27
2022-08-05T01:53:56.898Z,19.76
2022-08-05T01:58:09.563Z,20.18
2022-08-05T01:59:19.675Z,20.18
2022-08-05T02:01:49.581Z,20.11
2022-08-05T02:04:19.611Z,20.06
2022-08-05T02:06:46.324Z,20.01
2022-08-05T02:09:16.318Z,19.06
2022-08-05T02:11:53.193Z,19.75
2022-08-05T02:14:40.114Z,19.56
2022-08-05T02:18:28.384Z,18.77
2022-08-05T02:20:20.627Z,19.84
2022-08-05T02:22:56.919Z,19.89
2022-08-05T02:25:33.013Z,19.88
2022-08-05T02:28:02.360Z,19.84
2022-08-05T02:30:51.702Z,19.84
2022-08-05T02:33:24.394Z,19.89
2022-08-05T02:36:05.008Z,19.89
2022-08-05T02:38:35.531Z,19.24
2022-08-05T02:41:14.570Z,19.36
2022-08-05T02:44:02.263Z,19.82
2022-08-05T02:46:33.631Z,19.79
2022-08-05T02:49:01.746Z,19.04
2022-08-05T02:52:02.882Z,19.73
2022-08-05T02:54:34.998Z,19.78
2022-08-05T02:57:10.194Z,19.39
2022-08-05T02:59:54.351Z,19.68
2022-08-05T03:02:27.564Z,19.71
2022-08-05T03:04:57.390Z,19.17
2022-08-05T03:08:00.157Z,19.81
2022-08-05T03:10:15.800Z,19.67
2022-08-05T03:12:51.968Z,19.88
2022-08-05T03:15:18.599Z,18.41
2022-08-05T03:17:46.540Z,19.90
2022-08-05T03:20:13.519Z,19.93
2022-08-05T03:22:44.128Z,19.92
2022-08-05T03:25:32.834Z,19.40
2022-08-05T03:28:08.328Z,19.80
2022-08-05T03:30:36.634Z,19.72
2022-08-05T03:33:07.360Z,20.10
2022-08-05T03:35:41.173Z,20.07
2022-08-05T03:38:11.679Z,19.70
2022-08-05T03:40:45.254Z,19.71
2022-08-05T03:43:58.814Z,19.98
2022-08-05T03:46:02.667Z,19.94
2022-08-05T03:48:30.392Z,19.78
2022-08-05T03:52:48.779Z,20.06
2022-08-05T03:56:00.824Z,19.98
2022-08-05T03:57:02.240Z,19.57
2022-08-05T03:59:58.391Z,20.29
2022-08-05T04:02:37.544Z,20.35
2022-08-05T04:05:09.895Z,19.68
2022-08-05T04:07:57.287Z,20.18
2022-08-05T04:10:31.981Z,20.39
2022-08-05T04:13:00.641Z,20.13
2022-08-05T04:15:33.286Z,20.08
2022-08-05T04:18:06.688Z,20.66
2022-08-05T04:20:34.069Z,20.77
2022-08-05T04:23:00.742Z,20.83
2022-08-05T04:25:58.047Z,19.93
2022-08-05T04:28:14.654Z,20.41
2022-08-05T04:30:41.738Z,20.97
2022-08-05T04:33:09.569Z,20.92
2022-08-05T04:36:10.634Z,21.11
2022-08-05T04:38:22.915Z,20.91
2022-08-05T04:41:07.326Z,21.19
2022-08-05T04:43:35.990Z,20.89
2022-08-05T04:46:05.009Z,21.30
2022-08-05T04:48:31.957Z,19.77
2022-08-05T04:51:02.975Z,21.36
2022-08-05T04:53:36.562Z,21.51
2022-08-05T04:56:32.810Z,21.06
2022-08-05T04:58:56.534Z,20.75
2022-08-05T05:02:07.981Z,21.73
2022-08-05T05:04:10.499Z,21.06
2022-08-05T05:06:40.906Z,21.91
2022-08-05T05:09:17.571Z,21.98
2022-08-05T05:11:54.465Z,21.31
2022-08-05T05:14:27.708Z,21.32
2022-08-05T05:17:00.362Z,21.73
2022-08-05T05:19:36.445Z,21.01
2022-08-05T05:22:22.718Z,22.14
2022-08-05T05:24:59.025Z,22.08
2022-08-05T05:27:45.867Z,22.35
2022-08-05T05:30:31.203Z,21.39
2022-08-05T05:33:09.215Z,22.87
2022-08-05T05:35:45.290Z,22.90
2022-08-05T05:38:13.849Z,22.97
2022-08-05T05:40:50.089Z,23.07
2022-08-05T05:43:27.896Z,22.63
2022-08-05T05:46:12.110Z,22.84
2022-08-05T05:48:44.066Z,23.27
2022-08-05T05:51:15.812Z,23.14
2022-08-05T05:53:54.092Z,23.35
2022-08-05T05:56:32.675Z,23.17
2022-08-05T05:59:03.523Z,23.81
2022-08-05T06:01:38.130Z,23.25
2022-08-05T06:04:11.668Z,23.17
2022-08-05T06:06:46.615Z,23.14
2022-08-05T06:09:16.604Z,23.85
2022-08-05T06:11:59.419Z,24.08
2022-08-05T06:14:29.749Z,23.45
2022-08-05T06:16:57.132Z,24.33
2022-08-05T06:19:34.079Z,23.70
2022-08-05T06:22:06.640Z,24.43
2022-08-05T06:24:35.065Z,24.69
2022-08-05T06:27:02.213Z,24.81
2022-08-05T06:29:48.927Z,24.74
2022-08-05T06:32:25.101Z,23.85
2022-08-05T06:34:56.524Z,24.92
2022-08-05T06:37:56.611Z,24.81
2022-08-05T06:40:20.535Z,25.22
2022-08-05T06:42:52.083Z,24.97
2022-08-05T06:46:02.929Z,25.45
2022-08-05T06:48:36.685Z,24.32
2022-08-05T06:50:56.477Z,25.71
2022-08-05T06:53:28.572Z,24.20
2022-08-05T06:56:00.312Z,25.83
2022-08-05T06:58:34.836Z,26.00
2022-08-05T07:01:06.019Z,25.45
2022-08-05T07:03:33.724Z,26.18
2022-08-05T07:06:05.845Z,26.05
2022-08-05T07:08:40.580Z,24.23
2022-08-05T07:11:15.239Z,25.79
2022-08-05T07:14:29.395Z,26.25
2022-08-05T07:17:58.779Z,26.74
2022-08-05T07:22:35.745Z,27.00
2022-08-05T07:25:23.620Z,27.10
2022-08-05T07:27:58.422Z,27.06
2022-08-05T07:30:34.712Z,27.09
2022-08-05T07:33:09.270Z,27.39
2022-08-05T07:36:02.653Z,27.57
2022-08-05T07:38:33.580Z,27.71
2022-08-05T07:42:14.242Z,27.13
2022-08-05T07:44:06.371Z,27.98
2022-08-05T07:46:41.291Z,26.69
2022-08-05T07:49:14.912Z,28.21
2022-08-05T07:51:54.056Z,28.28
2022-08-05T07:54:31.511Z,27.33
2022-08-05T07:57:16.941Z,27.80
2022-08-05T07:59:50.933Z,28.24
2022-08-05T08:02:18.175Z,27.57
2022-08-05T08:04:47.298Z,28.16
2022-08-05T08:07:14.943Z,28.23
2022-08-05T08:09:42.136Z,27.99
2022-08-05T08:12:20.974Z,28.50
2022-08-05T08:14:55.449Z,28.14
2022-08-05T08:17:23.575Z,27.70
2022-08-05T08:20:21.419Z,28.45
2022-08-05T08:22:37.399Z,28.67
2022-08-05T08:25:16.201Z,28.86
2022-08-05T08:27:47.398Z,28.94
2022-08-05T08:30:30.027Z,28.76
2022-08-05T08:33:08.234Z,29.38
2022-08-05T08:35:40.972Z,29.40
2022-08-05T08:38:08.696Z,28.90
2022-08-05T08:40:50.494Z,29.70
2022-08-05T08:45:17.065Z,29.84
2022-08-05T08:46:06.413Z,29.62
2022-08-05T08:48:59.365Z,30.18
2022-08-05T08:52:03.553Z,28.79
2022-08-05T08:54:14.375Z,30.34
2022-08-05T08:56:47.748Z,30.05
2022-08-05T08:59:19.351Z,30.18
2022-08-05T09:01:57.326Z,30.66
2022-08-05T09:04:30.574Z,30.11
2022-08-05T09:06:57.830Z,30.86
2022-08-05T09:09:25.412Z,30.94
2022-08-05T09:11:54.776Z,30.33
2022-08-05T09:14:58.531Z,30.72
2022-08-05T09:17:40.908Z,31.29
2022-08-05T09:20:02.729Z,31.49
2022-08-05T09:23:09.579Z,31.62
2022-08-05T09:26:00.196Z,31.68
2022-08-05T09:28:32.182Z,31.85
2022-08-05T09:31:44.008Z,31.88
2022-08-05T09:34:05.951Z,32.04
2022-08-05T09:36:55.186Z,32.18
2022-08-05T09:39:27.817Z,32.34
2022-08-05T09:42:11.371Z,32.21
2022-08-05T09:44:49.305Z,32.48
2022-08-05T09:47:23.541Z,32.10
2022-08-05T09:50:01.951Z,32.71
2022-08-05T09:52:35.563Z,32.96
2022-08-05T09:55:06.289Z,32.92
2022-08-05T09:57:39.747Z,33.10
2022-08-05T10:00:16.297Z,33.36
2022-08-05T10:02:51.594Z,33.65
2022-08-05T10:05:20.541Z,33.60
2022-08-05T10:08:34.653Z,33.75
2022-08-05T10:10:45.633Z,33.54
2022-08-05T10:13:27.316Z,33.78
2022-08-05T10:16:07.808Z,33.09
2022-08-05T10:18:34.615Z,34.22
2022-08-05T10:21:08.428Z,34.61
2022-08-05T10:23:56.412Z,33.85
2022-08-05T10:26:32.660Z,35.00
2022-08-05T10:29:00.977Z,34.86
2022-08-05T10:32:54.653Z,35.17
2022-08-05T10:34:14.511Z,35.47
2022-08-05T10:36:44.155Z,34.78
2022-08-05T10:39:59.214Z,35.36
2022-08-05T10:42:33.970Z,35.97
2022-08-05T10:45:01.836Z,36.43
2022-08-05T10:47:34.349Z,36.60
2022-08-05T10:50:33.130Z,36.01
2022-08-05T10:53:01.083Z,36.57
2022-08-05T10:55:30.320Z,35.82
2022-08-05T10:58:11.400Z,36.52
2022-08-05T11:00:42.210Z,37.15
2022-08-05T11:03:25.053Z,37.49
2022-08-05T11:06:16.094Z,36.12
2022-08-05T11:09:32.056Z,35.87
2022-08-05T11:12:37.311Z,36.94
2022-08-05T11:15:20.068Z,37.88
2022-08-05T11:17:59.782Z,36.86
2022-08-05T11:20:34.181Z,36.59
2022-08-05T11:23:08.788Z,37.46
2022-08-05T11:26:05.698Z,38.36
2022-08-05T11:28:33.440Z,39.92
2022-08-05T11:31:06.482Z,40.88
2022-08-05T11:33:46.302Z,41.55
2022-08-05T11:36:34.256Z,42.79
2022-08-05T11:39:08.935Z,41.83
2022-08-05T11:41:58.072Z,42.12
2022-08-05T11:44:53.447Z,45.93
2022-08-05T11:47:22.144Z,47.64
2022-08-05T11:50:08.296Z,49.22
2022-08-05T11:52:35.215Z,44.38
2022-08-05T11:55:07.336Z,40.93
2022-08-05T11:58:08.164Z,41.09
2022-08-05T12:00:31.218Z,44.42
2022-08-05T12:02:58.003Z,42.04
2022-08-05T12:05:36.312Z,39.56
2022-08-05T12:08:09.875Z,39.42
2022-08-05T12:10:45.258Z,44.54
2022-08-05T12:13:28.216Z,47.43
2022-08-05T12:16:14.590Z,47.82
2022-08-05T12:18:49.449Z,49.72
2022-08-05T12:21:39.005Z,47.25
2022-08-05T12:24:14.118Z,49.75
2022-08-05T12:26:53.017Z,51.46
2022-08-05T12:29:23.718Z,52.56
2022-08-05T12:31:55.652Z,52.46
2022-08-05T12:34:28.238Z,53.92
2022-08-05T12:36:56.977Z,52.80
2022-08-05T12:39:28.052Z,51.36
2022-08-05T12:42:02.511Z,47.42
2022-08-05T12:44:33.838Z,43.44
2022-08-05T12:47:02.046Z,40.67
2022-08-05T12:50:04.221Z,36.76
2022-08-05T12:52:32.445Z,35.79
2022-08-05T12:55:36.671Z,35.32
2022-08-05T12:58:50.693Z,36.00
2022-08-05T13:02:02.062Z,38.19
2022-08-05T13:03:42.250Z,42.21
2022-08-05T13:06:14.445Z,45.02
2022-08-05T13:08:50.664Z,47.05
2022-08-05T13:11:25.616Z,47.93
2022-08-05T13:14:19.732Z,47.45
2022-08-05T13:16:57.766Z,45.18
2022-08-05T13:19:40.267Z,42.13
2022-08-05T13:22:15.039Z,39.31
2022-08-05T13:25:00.378Z,37.11
2022-08-05T13:27:38.184Z,35.65
2022-08-05T13:30:34.220Z,34.64
2022-08-05T13:32:53.935Z,34.96
2022-08-05T13:35:43.204Z,34.88
2022-08-05T13:38:11.524Z,33.65
2022-08-05T13:40:51.310Z,36.25
2022-08-05T13:43:22.089Z,36.96
2022-08-05T13:45:49.140Z,35.83
2022-08-05T13:48:58.712Z,34.01
2022-08-05T13:51:09.541Z,34.88
2022-08-05T13:53:47.992Z,33.87
2022-08-05T13:56:18.336Z,34.19
2022-08-05T13:58:52.829Z,33.08
2022-08-05T14:01:25.922Z,33.34
2022-08-05T14:04:21.485Z,33.05
2022-08-05T14:06:48.095Z,32.70
2022-08-05T14:09:25.527Z,32.39
2022-08-05T14:12:04.138Z,32.23
2022-08-05T14:14:43.063Z,31.49
2022-08-05T14:17:16.995Z,31.89
2022-08-05T14:19:54.645Z,32.08
2022-08-05T14:22:23.695Z,32.01
2022-08-05T14:24:56.827Z,31.83
2022-08-05T14:27:23.714Z,30.71
2022-08-05T14:29:56.370Z,31.72
2022-08-05T14:32:27.264Z,30.93
2022-08-05T14:34:57.023Z,31.21
2022-08-05T14:37:45.452Z,31.57
2022-08-05T14:40:14.089Z,31.12
2022-08-05T14:42:43.245Z,31.40
2022-08-05T14:45:10.259Z,30.53
2022-08-05T14:48:05.267Z,30.58
2022-08-05T14:50:25.353Z,30.87
2022-08-05T14:52:57.795Z,31.06
2022-08-05T14:55:28.702Z,30.23
2022-08-05T14:58:10.932Z,30.59
2022-08-05T15:00:59.830Z,29.84
2022-08-05T15:03:34.137Z,30.50
2022-08-05T15:06:12.754Z,30.54
2022-08-05T15:08:59.145Z,30.43
2022-08-05T15:11:51.788Z,30.31
2022-08-05T15:14:33.314Z,30.57
2022-08-05T15:17:01.033Z,30.52
2022-08-05T15:19:27.647Z,30.56
2022-08-05T15:21:54.548Z,29.64
2022-08-05T15:24:27.577Z,30.41
2022-08-05T15:26:54.133Z,30.34
2022-08-05T15:29:22.964Z,29.84
2022-08-05T15:31:52.954Z,29.64
2022-08-05T15:34:32.869Z,29.23
2022-08-05T15:37:06.256Z,30.01
2022-08-05T15:40:59.733Z,29.96
2022-08-05T15:42:53.965Z,29.83
2022-08-05T15:45:18.667Z,29.72
2022-08-05T15:47:49.704Z,29.33
2022-08-05T15:50:21.070Z,29.36
2022-08-05T15:52:55.008Z,29.35
2022-08-05T15:55:24.497Z,29.67
2022-08-05T15:57:55.259Z,29.65
2022-08-05T16:00:42.926Z,28.84
2022-08-05T16:03:12.901Z,29.10
2022-08-05T16:05:41.727Z,28.95
2022-08-05T16:08:08.613Z,29.32
2022-08-05T16:10:35.326Z,29.48
2022-08-05T16:13:02.814Z,29.39
2022-08-05T16:15:32.539Z,29.31
2022-08-05T16:18:00.578Z,27.69
2022-08-05T16:20:30.815Z,28.19
2022-08-05T16:22:59.077Z,29.09
2022-08-05T16:25:33.821Z,29.04
2022-08-05T16:28:05.315Z,28.17
2022-08-05T16:30:34.205Z,29.00
2022-08-05T16:33:04.509Z,28.71
2022-08-05T16:35:32.410Z,28.74
2022-08-05T16:38:03.235Z,28.73
2022-08-05T16:40:52.316Z,28.10
2022-08-05T16:43:25.782Z,28.52
2022-08-05T16:46:04.034Z,28.68
2022-08-05T16:48:37.867Z,28.37
2022-08-05T16:51:08.994Z,28.57
2022-08-05T16:54:04.928Z,28.51
2022-08-05T16:56:29.882Z,28.46
2022-08-05T16:58:57.816Z,28.12
2022-08-05T17:01:24.675Z,28.17
2022-08-05T17:03:51.873Z,27.38
2022-08-05T17:06:19.037Z,27.71
2022-08-05T17:08:54.347Z,27.71
2022-08-05T17:11:23.781Z,28.12
2022-08-05T17:14:00.601Z,27.90
2022-08-05T17:16:37.637Z,28.04
2022-08-05T17:19:07.853Z,27.96
2022-08-05T17:21:37.351Z,27.58
2022-08-05T17:24:14.267Z,27.66
2022-08-05T17:26:53.544Z,27.78
2022-08-05T17:29:39.907Z,27.70
2022-08-05T17:32:17.131Z,27.25
2022-08-05T17:34:48.371Z,27.05
2022-08-05T17:37:40.521Z,26.91
2022-08-05T17:40:10.090Z,27.49
2022-08-05T17:42:41.738Z,26.86
2022-08-05T17:45:21.331Z,27.35
2022-08-05T17:47:54.398Z,27.31
2022-08-05T17:50:28.150Z,27.03
2022-08-05T17:52:55.957Z,27.14
2022-08-05T17:55:27.348Z,27.06
2022-08-05T17:58:02.065Z,25.15
2022-08-05T18:00:29.494Z,26.90
2022-08-05T18:02:56.482Z,26.86
2022-08-05T18:05:23.883Z,26.24
2022-08-05T18:07:54.718Z,26.51
2022-08-05T18:10:25.003Z,26.66
2022-08-05T18:12:52.284Z,26.42
2022-08-05T18:15:18.924Z,25.85
2022-08-05T18:18:00.134Z,26.48
2022-08-05T18:20:31.935Z,26.09
2022-08-05T18:23:09.557Z,26.37
2022-08-05T18:25:45.589Z,25.28
2022-08-05T18:28:16.642Z,26.24
2022-08-05T18:30:45.668Z,26.08
2022-08-05T18:33:17.712Z,26.18
2022-08-05T18:36:03.409Z,26.11
2022-08-05T18:38:35.952Z,25.93
2022-08-05T18:41:53.666Z,25.57
2022-08-05T18:43:54.132Z,25.62
2022-08-05T18:46:20.850Z,26.04
2022-08-05T18:48:51.956Z,25.92
2022-08-05T18:52:06.258Z,25.68
2022-08-05T18:54:31.717Z,25.35
2022-08-05T18:57:01.059Z,25.75
2022-08-05T18:59:44.278Z,25.70
2022-08-05T19:02:26.991Z,25.03
2022-08-05T19:05:02.733Z,25.60
2022-08-05T19:07:45.861Z,23.93
2022-08-05T19:10:14.548Z,25.46
2022-08-05T19:12:41.342Z,24.60
2022-08-05T19:15:25.152Z,25.36
2022-08-05T19:18:08.739Z,24.59
2022-08-05T19:20:36.891Z,25.32
2022-08-05T19:23:07.688Z,24.50
2022-08-05T19:25:38.172Z,25.24
2022-08-05T19:28:09.907Z,25.18
2022-08-05T19:30:36.672Z,24.71
2022-08-05T19:33:05.140Z,24.65
2022-08-05T19:35:55.729Z,24.34
2022-08-05T19:38:24.542Z,24.64
2022-08-05T19:40:53.609Z,23.95
2022-08-05T19:44:03.871Z,24.10
2022-08-05T19:46:06.794Z,24.69
2022-08-05T19:48:53.343Z,24.67
2022-08-05T19:51:56.602Z,24.81
2022-08-05T19:54:26.649Z,24.10
2022-08-05T19:56:55.230Z,24.78
2022-08-05T19:59:56.170Z,24.74
2022-08-05T20:02:08.667Z,24.50
2022-08-05T20:04:36.906Z,24.43
2022-08-05T20:07:03.579Z,24.67
2022-08-05T20:09:54.567Z,24.09
2022-08-05T20:12:23.647Z,24.61
2022-08-05T20:14:52.304Z,24.56
2022-08-05T20:17:23.482Z,24.49
2022-08-05T20:19:56.751Z,23.85
2022-08-05T20:22:24.229Z,24.21
2022-08-05T20:24:53.841Z,23.06
2022-08-05T20:27:21.063Z,24.28
2022-08-05T20:29:58.222Z,24.48
2022-08-05T20:32:27.265Z,24.49
2022-08-05T20:34:54.538Z,24.52
2022-08-05T20:38:04.721Z,23.74
2022-08-05T20:40:09.500Z,23.94
2022-08-05T20:42:36.283Z,24.46
2022-08-05T20:45:04.497Z,24.48
2022-08-05T20:47:33.302Z,24.47
2022-08-05T20:50:02.100Z,24.47
2022-08-05T20:52:29.749Z,24.07
2022-08-05T20:55:54.343Z,24.43
2022-08-05T20:57:44.848Z,24.40
2022-08-05T21:00:35.086Z,24.16
2022-08-05T21:03:06.129Z,24.31
2022-08-05T21:05:48.098Z,23.41
2022-08-05T21:08:28.115Z,24.27
2022-08-05T21:11:15.136Z,24.25
2022-08-05T21:13:59.425Z,23.96
2022-08-05T21:16:29.949Z,24.19
2022-08-05T21:19:00.177Z,24.18
2022-08-05T21:21:44.522Z,24.18
2022-08-05T21:24:16.212Z,24.15
2022-08-05T21:26:53.650Z,24.12
2022-08-05T21:29:31.301Z,24.11
2022-08-05T21:31:59.715Z,24.11
2022-08-05T21:34:28.188Z,24.07
2022-08-05T21:36:54.993Z,24.02
2022-08-05T21:39:26.907Z,23.30
2022-08-05T21:42:01.147Z,23.91
2022-08-05T21:44:32.115Z,23.37
2022-08-05T21:46:59.473Z,23.75
2022-08-05T21:49:48.386Z,23.32
2022-08-05T21:52:23.054Z,23.81
2022-08-05T21:54:55.592Z,23.89
2022-08-05T21:57:31.185Z,23.37
2022-08-05T22:00:10.844Z,23.15
2022-08-05T22:02:42.485Z,23.75
2022-08-05T22:05:10.644Z,23.69
2022-08-05T22:07:39.889Z,23.49
2022-08-05T22:10:26.669Z,23.43
2022-08-05T22:12:59.088Z,23.37
2022-08-05T22:16:00.887Z,23.44
2022-08-05T22:18:24.892Z,23.42
2022-08-05T22:20:52.801Z,23.55
2022-08-05T22:24:01.006Z,22.89
2022-08-05T22:26:49.739Z,22.91
2022-08-05T22:29:18.674Z,23.43
2022-08-05T22:31:45.754Z,22.60
2022-08-05T22:34:28.193Z,22.71
2022-08-05T22:36:56.952Z,23.35
2022-08-05T22:39:32.532Z,23.35
2022-08-05T22:42:09.811Z,22.13
2022-08-05T22:44:38.686Z,23.28
2022-08-05T22:47:06.035Z,23.25
2022-08-05T22:50:17.760Z,23.23
2022-08-05T22:52:30.246Z,23.19
2022-08-05T22:55:01.748Z,22.79
2022-08-05T22:57:34.129Z,23.01
2022-08-05T23:00:07.754Z,22.80
2022-08-05T23:02:35.910Z,22.65
2022-08-05T23:05:12.940Z,22.73
2022-08-05T23:07:45.005Z,23.11
2022-08-05T23:10:14.975Z,22.81
2022-08-05T23:12:43.826Z,23.08
2022-08-05T23:15:11.923Z,23.08
2022-08-05T23:18:01.699Z,23.04
2022-08-05T23:20:25.411Z,22.98
2022-08-05T23:22:56.175Z,22.91
2022-08-05T23:25:52.524Z,22.86
2022-08-05T23:28:10.969Z,22.83
2022-08-05T23:30:39.972Z,22.44
2022-08-05T23:33:22.140Z,22.88
2022-08-05T23:35:55.886Z,22.55
2022-08-05T23:38:24.184Z,22.83
2022-08-05T23:40:52.736Z,22.60
2022-08-05T23:43:25.206Z,22.75
2022-08-05T23:46:20.369Z,22.73
2022-08-05T23:49:00.973Z,22.70
2022-08-05T23:51:54.218Z,22.43
2022-08-05T23:54:30.269Z,22.01
2022-08-05T23:57:04.762Z,22.62
2022-08-05T23:59:37.669Z,20.49
